Terminal Aerodrome Forecast
Issued by NWS Portland, OR

Home | Current Version | Previous Version | Text Only | Print | Product List | Glossary On
Versions: 1 2 3 4 5 6 7 8 9 10 11 12 13 14 15 16 17 18 19 20 21 22 23 24 25 26 27 28 29 30
000
FTUS46 KPQR 200527
TAFPDX
TAF
KPDX 200527Z 2006/2106 11011KT P6SM OVC060
     FM201500 11016KT P6SM -RA OVC040
     FM201700 11016KT P6SM -RA OVC030
     FM202000 11013KT P6SM -RA OVC040
     FM210000 11010KT P6SM -SHRA BKN040 OVC100=

USA.gov is the U.S. government's official web portal to all federal, state and local government web resources and services.